Latest Weather Observations for Badgerys Creek

IDN60801

Issued at 12:32 pm EST Monday 24 July 2017 (issued every 30 minutes, with the page automatically refreshed every 10 minutes)

About weather observations | Map of weather stations | Latest weather observations for NSW | Other Formats
Station Details ID: 067108 Name: BADGERYS CREEK AWS Lat: -33.90 Lon: 150.73 Height: 81.2 m
Data from the previous 72 hours. | See also: Recent months at Badgerys Creek
Date/Time
EST
Temp
°C
App
Temp
°C
Dew
Point
°C
Rel
Hum
%
Delta-T
°C
Wind Press
QNH
hPa
Press
MSL
hPa
Rain since
9am
mm
Dir  Spd
km/h
Gust
km/h
Spd
kts
Gust
kts
24/12:30pm 19.4 13.9 1.9 31 8.0 WSW 20 30 11 16 1018.6 1018.6 0.0
24/12:00pm 19.0 13.1 2.0 32 7.8 W 22 33 12 18 1018.8 1018.8 0.0
24/11:30am 18.4 15.0 4.2 39 6.8 WSW 11 19 6 10 1019.5 1019.6 0.0
24/11:00am 17.9 16.0 4.8 42 6.3 NE 4 7 2 4 1019.8 1019.9 0.0
24/10:30am 16.2 13.9 4.9 47 5.4 E 6 9 3 5 1020.0 1020.1 0.0
24/10:00am 17.1 16.2 6.0 48 5.4 CALM 0 6 0 3 1020.1 1020.2 0.0
24/09:30am 14.9 13.3 4.6 50 4.8 NW 2 6 1 3 1020.0 1020.1 0.0
24/09:00am 12.7 10.2 3.9 55 4.0 NNW 6 9 3 5 1019.8 1019.9 0.0
24/08:30am 9.6 8.2 3.6 66 2.6 CALM 0 2 0 1 1019.5 1019.6 0.0
24/08:00am 8.0 6.1 3.1 71 2.1 NW 2 6 1 3 1019.3 1019.4 0.0
24/07:30am 4.4 1.7 0.2 74 1.6 NW 4 6 2 3 1018.8 1018.8 0.0
24/07:00am 5.4 2.2 0.6 71 1.9 NE 7 13 4 7 1018.4 1018.4 0.0
24/06:30am 4.3 1.5 -0.1 73 1.7 ESE 4 9 2 5 1018.0 1018.0 0.0
24/06:00am 4.6 1.9 0.0 72 1.7 ESE 4 6 2 3 1017.6 1017.6 0.0
24/05:30am 6.5 4.0 -0.7 60 2.7 ESE 2 2 1 1 1016.8 1016.9 0.0
24/05:00am 7.7 4.6 0.2 59 3.0 ESE 6 7 3 4 1016.5 1016.6 0.0
24/04:30am 6.9 4.1 -0.1 61 2.7 N 4 7 2 4 1016.2 1016.3 0.0
24/04:00am 9.3 5.9 -0.3 51 3.8 N 7 11 4 6 1016.1 1016.2 0.0
24/03:30am 9.0 6.2 -0.1 53 3.6 WNW 4 7 2 4 1016.1 1016.2 0.0
24/03:00am 10.3 7.1 -0.5 47 4.3 NW 6 7 3 4 1016.1 1016.2 0.0
24/02:30am 11.2 8.0 -0.3 45 4.7 W 6 7 3 4 1016.2 1016.3 0.0
24/02:00am 12.7 7.8 -0.2 41 5.3 WNW 15 19 8 10 1016.1 1016.2 0.0
24/01:30am 13.1 7.2 -0.5 39 5.6 WNW 20 22 11 12 1016.0 1016.1 0.0
24/01:00am 12.6 7.7 -0.6 40 5.4 WNW 15 17 8 9 1015.9 1016.0 0.0
24/12:30am 12.9 7.6 -0.7 39 5.6 WNW 17 22 9 12 1015.6 1015.7 0.0
24/12:00am 13.1 8.2 -0.5 39 5.6 WNW 15 19 8 10 1015.5 1015.6 0.0
 
Date/Time
EST
Temp
°C
App
Temp
°C
Dew
Point
°C
Rel
Hum
%
Delta-T
°C
Wind Press
QNH
hPa
Press
MSL
hPa
Rain since
9am
mm
Dir  Spd
km/h
Gust
km/h
Spd
kts
Gust
kts
23/11:30pm 13.3 8.8 -0.3 39 5.6 WNW 13 17 7 9 1015.4 1015.5 0.0
23/11:00pm 13.5 9.0 -0.2 39 5.7 WNW 13 17 7 9 1015.6 1015.7 0.0
23/10:30pm 13.5 9.0 -0.2 39 5.7 WNW 13 17 7 9 1015.7 1015.8 0.0
23/10:00pm 14.0 9.5 -0.4 37 6.0 WNW 13 15 7 8 1015.5 1015.6 0.0
23/09:30pm 14.7 9.8 -0.2 36 6.3 WNW 15 24 8 13 1015.1 1015.2 0.0
23/09:00pm 16.0 10.4 0.2 34 6.8 WNW 19 26 10 14 1015.2 1015.3 0.0
23/08:30pm 16.4 11.2 0.1 33 7.0 WNW 17 28 9 15 1014.9 1015.0 0.0
23/08:00pm 17.4 12.3 0.6 32 7.4 W 17 24 9 13 1014.6 1014.7 0.0
23/07:30pm 16.6 11.9 0.7 34 6.9 W 15 22 8 12 1014.4 1014.5 0.0
23/07:00pm 16.4 12.1 0.9 35 6.8 WNW 13 22 7 12 1014.0 1014.1 0.0
23/06:30pm 15.8 11.5 0.8 36 6.5 NW 13 17 7 9 1013.9 1014.0 0.0
23/06:00pm 16.6 12.3 1.1 35 6.8 NNW 13 20 7 11 1013.3 1013.4 0.0
23/05:30pm 17.2 12.5 1.2 34 7.1 NNW 15 17 8 9 1013.0 1013.1 0.0
23/05:00pm 18.2 13.6 1.7 33 7.5 NNW 15 17 8 9 1012.8 1012.9 0.0
23/04:30pm 19.8 15.7 2.2 31 8.1 NNW 13 17 7 9 1012.7 1012.8 0.0
23/04:00pm 21.0 16.8 1.8 28 8.9 NW 13 19 7 10 1012.6 1012.7 0.0
23/03:30pm 21.3 16.3 1.6 27 9.1 NW 17 24 9 13 1012.5 1012.6 0.0
23/03:00pm 21.1 14.3 0.9 26 9.2 NW 26 39 14 21 1012.5 1012.6 0.0
23/02:30pm 21.3 15.9 1.0 26 9.3 NNW 19 28 10 15 1012.9 1013.0 0.0
23/02:00pm 20.5 14.4 0.4 26 9.0 NW 22 32 12 17 1013.2 1013.3 0.0
23/01:30pm 20.0 13.5 0.5 27 8.7 NW 24 35 13 19 1013.6 1013.7 0.0
23/01:00pm 20.0 14.3 0.5 27 8.7 NW 20 30 11 16 1014.2 1014.3 0.0
23/12:30pm 19.8 13.2 -0.2 26 8.8 WNW 24 35 13 19 1014.9 1015.0 0.0
23/12:00pm 19.2 11.8 -0.7 26 8.6 W 28 37 15 20 1015.4 1015.5 0.0
23/11:30am 19.0 11.2 -0.9 26 8.6 W 30 43 16 23 1016.2 1016.3 0.0
23/11:29am 19.2 11.8 -0.7 26 8.6 W 28 43 15 23 1016.2 1016.3 0.0
23/11:00am 17.4 14.3 1.4 34 7.1 WSW 7 17 4 9 1016.8 1016.9 0.0
23/10:30am 15.4 13.6 3.5 45 5.5 N 2 6 1 3 1017.1 1017.2 0.0
23/10:00am 12.8 10.4 4.3 56 3.9 NE 6 9 3 5 1017.3 1017.4 0.0
23/09:30am 10.1 8.1 4.3 67 2.6 N 4 6 2 3 1017.6 1017.6 0.0
23/09:00am 7.8 5.6 3.3 73 1.9 NNE 4 9 2 5 1017.8 1017.8 0.0
23/08:30am 5.4 2.7 2.6 82 1.1 N 6 9 3 5 1017.7 1017.7 0.0
23/08:00am 2.6 0.3 2.5 99 0.0 SSW 4 9 2 5 1017.7 1017.7 0.0
23/07:30am -0.6 -3.1 -0.7 99 0.0 SW 2 6 1 3 1017.8 1017.8 0.0
23/07:00am 0.0 -2.0 -0.1 99 0.0 CALM 0 4 0 2 1017.5 1017.5 0.0
23/06:30am -0.9 -3.0 -1.0 99 0.0 CALM 0 0 0 0 1017.2 1017.3 0.0
23/06:00am -0.1 -3.3 -0.2 99 0.0 SW 6 6 3 3 1017.1 1017.2 0.0
23/05:30am -0.5 -2.9 -0.6 99 0.0 SW 2 4 1 2 1017.1 1017.2 0.0
23/05:00am -0.8 -4.2 -0.9 99 0.0 WSW 7 9 4 5 1017.1 1017.2 0.0
23/04:30am -0.5 -3.7 -0.6 99 0.0 WSW 6 13 3 7 1016.9 1017.0 0.0
23/04:00am -1.1 -4.0 -1.2 99 0.0 SW 4 7 2 4 1017.0 1017.1 0.0
23/03:30am -0.6 -3.8 -0.7 99 0.0 WSW 6 9 3 5 1016.9 1017.0 0.0
23/03:00am 0.8 -1.5 0.7 99 0.0 WSW 2 4 1 2 1016.9 1017.0 0.0
23/02:30am 0.9 -1.7 0.8 99 0.0 SW 4 6 2 3 1017.2 1017.3 0.0
23/02:00am 0.2 -2.6 -0.4 96 0.2 NNW 4 9 2 5 1017.6 1017.6 0.0
23/01:30am 1.6 -0.9 1.5 99 0.0 N 4 7 2 4 1017.8 1017.8 0.0
23/01:00am 3.1 -0.3 1.8 91 0.5 NNW 9 13 5 7 1018.0 1018.0 0.0
23/12:30am 1.6 -1.3 1.5 99 0.0 NE 6 7 3 4 1018.2 1018.2 0.0
23/12:00am 1.5 -1.0 1.4 99 0.0 NE 4 6 2 3 1018.4 1018.4 0.0
 
Date/Time
EST
Temp
°C
App
Temp
°C
Dew
Point
°C
Rel
Hum
%
Delta-T
°C
Wind Press
QNH
hPa
Press
MSL
hPa
Rain since
9am
mm
Dir  Spd
km/h
Gust
km/h
Spd
kts
Gust
kts
22/11:30pm 2.6 0.2 2.3 98 0.1 NE 4 6 2 3 1018.6 1018.6 0.0
22/11:00pm 2.7 0.0 2.6 99 0.0 NE 6 7 3 4 1018.6 1018.6 0.0
22/10:30pm 2.6 0.3 2.5 99 0.0 NNE 4 6 2 3 1018.7 1018.7 0.0
22/10:00pm 3.7 1.7 2.2 90 0.6 NE 2 4 1 2 1018.9 1019.0 0.0
22/09:30pm 4.8 3.2 2.7 86 0.9 CALM 0 0 0 0 1018.8 1018.8 0.0
22/09:00pm 4.4 1.7 2.8 89 0.6 N 6 11 3 6 1019.0 1019.1 0.0
22/08:30pm 5.7 3.3 2.4 79 1.3 NNW 4 6 2 3 1019.0 1019.1 0.0
22/08:00pm 5.3 2.4 1.6 77 1.5 NNW 6 6 3 3 1019.1 1019.2 0.0
22/07:30pm 8.0 5.7 2.5 68 2.3 NNW 4 6 2 3 1019.3 1019.4 0.0
22/07:00pm 9.0 6.2 1.9 61 3.0 NNW 6 9 3 5 1019.3 1019.4 0.0
22/06:30pm 9.0 6.0 1.0 57 3.3 NNW 6 7 3 4 1019.3 1019.4 0.0
22/06:00pm 10.4 8.2 1.2 53 3.8 NNE 2 4 1 2 1019.1 1019.2 0.0
22/05:30pm 12.8 10.9 0.5 43 5.2 CALM 0 2 0 1 1018.8 1018.8 0.0
22/05:00pm 15.3 13.4 0.3 36 6.4 CALM 0 0 0 0 1018.9 1019.0 0.0
22/04:30pm 15.9 13.5 2.3 40 6.1 NNE 4 6 2 3 1018.6 1018.6 0.0
22/04:00pm 16.7 13.9 -0.1 32 7.2 NNE 4 7 2 4 1018.5 1018.5 0.0
22/03:30pm 16.9 13.9 0.5 33 7.2 NNE 6 9 3 5 1018.6 1018.6 0.0
22/03:00pm 16.7 13.7 0.8 34 6.9 NNE 6 9 3 5 1018.9 1019.0 0.0
22/02:30pm 16.4 13.4 1.7 37 6.5 N 7 9 4 5 1019.1 1019.2 0.0
22/02:00pm 16.4 13.5 2.8 40 6.2 N 7 9 4 5 1019.5 1019.6 0.0
22/01:30pm 15.7 12.7 1.1 37 6.4 N 6 9 3 5 1019.9 1020.0 0.0
22/01:00pm 15.2 12.4 2.1 41 5.8 NNE 6 9 3 5 1020.2 1020.3 0.0
22/12:30pm 14.3 11.6 2.5 45 5.2 N 6 11 3 6 1020.9 1021.0 0.0
22/12:00pm 13.1 10.4 2.4 48 4.7 NNE 6 9 3 5 1021.4 1021.5 0.0
22/11:30am 12.8 10.2 3.2 52 4.3 NNE 6 9 3 5 1022.1 1022.2 0.0
22/11:00am 11.3 8.6 2.6 55 3.8 NNE 6 11 3 6 1022.8 1022.9 0.0
22/10:30am 10.2 7.5 2.8 60 3.2 N 6 9 3 5 1023.3 1023.4 0.0
22/10:00am 9.5 7.3 3.5 66 2.6 NNW 4 9 2 5 1023.8 1023.9 0.0
22/09:30am 7.8 6.4 3.5 74 1.8 CALM 0 0 0 0 1024.1 1024.2 0.0
22/09:00am 5.4 3.0 4.4 93 0.4 W 6 6 3 3 1024.3 1024.4 0.0
22/08:30am 2.6 1.0 2.5 99 0.0 CALM 0 0 0 0 1024.2 1024.3 0.0
22/08:00am 0.9 -1.7 0.9 100 0.0 WSW 4 4 2 2 1024.1 1024.2 0.0
22/07:30am -0.7 -3.9 -0.7 100 0.0 WSW 6 6 3 3 1024.2 1024.3 0.0
22/07:00am -0.6 -2.7 -0.7 99 0.0 CALM 0 0 0 0 1024.1 1024.2 0.0
22/06:30am 0.0 -2.0 0.0 100 0.0 CALM 0 0 0 0 1023.6 1023.7 0.0
22/06:00am 0.2 -1.8 0.2 100 0.0 CALM 0 0 0 0 1023.3 1023.4 0.0
22/05:30am 0.0 -2.0 -0.1 99 0.0 CALM 0 2 0 1 1023.4 1023.5 0.0
22/05:00am 0.1 -2.3 0.0 99 0.0 W 2 4 1 2 1023.2 1023.3 0.0
22/04:30am 0.7 -2.0 0.6 99 0.0 W 4 4 2 2 1023.0 1023.1 0.0
22/04:00am 0.8 -1.8 0.7 99 0.0 W 4 4 2 2 1022.9 1023.0 0.0
22/03:30am 2.3 -0.1 2.2 99 0.0 W 4 6 2 3 1023.0 1023.1 0.0
22/03:00am 2.6 1.0 2.5 99 0.0 CALM 0 0 0 0 1023.0 1023.1 0.0
22/02:30am 2.5 0.9 2.4 99 0.0 CALM 0 0 0 0 1023.0 1023.1 0.0
22/02:00am 3.0 1.3 2.1 94 0.4 CALM 0 0 0 0 1023.0 1023.1 0.0
22/01:30am 4.0 1.7 2.5 90 0.6 WSW 4 6 2 3 1023.0 1023.1 0.0
22/01:00am 3.6 0.9 2.4 92 0.5 WSW 6 7 3 4 1023.1 1023.2 0.0
22/12:30am 3.6 0.8 2.1 90 0.6 WSW 6 6 3 3 1023.3 1023.4 0.0
22/12:00am 4.1 1.8 2.5 89 0.6 WSW 4 6 2 3 1023.6 1023.7 0.0
 
Date/Time
EST
Temp
°C
App
Temp
°C
Dew
Point
°C
Rel
Hum
%
Delta-T
°C
Wind Press
QNH
hPa
Press
MSL
hPa
Rain since
9am
mm
Dir  Spd
km/h
Gust
km/h
Spd
kts
Gust
kts
21/11:30pm 4.3 2.0 2.5 88 0.7 WSW 4 6 2 3 1023.9 1024.0 0.0
21/11:00pm 4.3 1.5 2.2 86 0.8 WSW 6 7 3 4 1023.9 1024.0 0.0
21/10:30pm 4.6 1.6 2.1 84 1.0 WSW 7 9 4 5 1023.7 1023.8 0.0
21/10:00pm 5.2 2.2 2.0 80 1.3 SSW 7 7 4 4 1023.5 1023.6 0.0
21/09:30pm 5.4 2.7 2.9 84 1.0 SSW 6 6 3 3 1023.3 1023.4 0.0
21/09:00pm 5.0 2.1 1.5 78 1.4 SSW 6 7 3 4 1023.3 1023.4 0.0
21/08:30pm 5.5 2.7 1.8 77 1.5 SSW 6 6 3 3 1023.1 1023.2 0.0
21/08:00pm 7.6 4.8 1.9 67 2.3 SE 6 6 3 3 1022.9 1023.0 0.0
21/07:30pm 6.7 4.2 1.4 69 2.1 SE 4 6 2 3 1022.9 1023.0 0.0
21/07:00pm 7.2 4.7 1.5 67 2.3 SE 4 6 2 3 1022.7 1022.8 0.0
21/06:30pm 8.2 5.3 1.4 62 2.8 S 6 9 3 5 1022.4 1022.5 0.0
21/06:00pm 10.4 7.9 1.5 54 3.7 SW 4 4 2 2 1022.1 1022.2 0.0
21/05:30pm 10.8 8.2 0.8 50 4.1 SSW 4 7 2 4 1021.9 1022.0 0.0
21/05:00pm 13.7 10.7 1.0 42 5.4 SSW 6 7 3 4 1021.6 1021.7 0.0
21/04:30pm 14.8 11.6 1.0 39 6.0 S 7 15 4 8 1021.3 1021.4 0.0
21/04:00pm 15.6 11.6 0.6 36 6.5 SSW 11 19 6 10 1021.1 1021.2 0.0
21/03:30pm 16.0 12.1 1.0 36 6.6 SSW 11 17 6 9 1020.9 1021.0 0.0
21/03:00pm 16.2 12.0 1.9 38 6.4 SSW 13 20 7 11 1020.6 1020.7 0.0
21/02:30pm 16.3 11.6 1.2 36 6.6 SW 15 24 8 13 1020.6 1020.7 0.0
21/02:00pm 16.2 11.2 1.1 36 6.6 SSW 17 33 9 18 1020.5 1020.6 0.0
21/01:30pm 15.7 10.7 1.4 38 6.3 SSW 17 28 9 15 1020.5 1020.6 0.0
21/01:00pm 16.0 11.5 2.4 40 6.1 SW 15 24 8 13 1020.6 1020.7 0.0

Other Formats:

Comma delimited format used in spreadsheet applications
http://www.bom.gov.au/fwo/IDN60801/IDN60801.94752.axf

JavaScript Object Notation format (JSON) in row-major order
http://www.bom.gov.au/fwo/IDN60801/IDN60801.94752.json